sensor_id;sensor_type;location;lat;lon;timestamp;P1;durP1;ratioP1;P2;durP2;ratioP2
19788;SDS011;10054;59.332;18.244;2023-10-31T00:00:00;20.73;;;4.90;;
19788;SDS011;10054;59.332;18.244;2023-10-31T00:02:30;11.83;;;4.37;;
19788;SDS011;10054;59.332;18.244;2023-10-31T00:04:59;15.10;;;4.63;;
19788;SDS011;10054;59.332;18.244;2023-10-31T00:07:27;19.07;;;4.90;;
19788;SDS011;10054;59.332;18.244;2023-10-31T00:09:56;16.47;;;4.67;;
19788;SDS011;10054;59.332;18.244;2023-10-31T00:12:25;17.97;;;6.00;;
19788;SDS011;10054;59.332;18.244;2023-10-31T00:14:54;18.43;;;6.13;;
19788;SDS011;10054;59.332;18.244;2023-10-31T00:17:22;18.97;;;5.33;;
19788;SDS011;10054;59.332;18.244;2023-10-31T00:19:51;17.07;;;4.70;;
19788;SDS011;10054;59.332;18.244;2023-10-31T00:22:20;14.37;;;4.60;;
19788;SDS011;10054;59.332;18.244;2023-10-31T00:24:49;14.43;;;4.10;;
19788;SDS011;10054;59.332;18.244;2023-10-31T00:27:18;13.03;;;4.23;;
19788;SDS011;10054;59.332;18.244;2023-10-31T00:29:48;15.17;;;4.17;;
19788;SDS011;10054;59.332;18.244;2023-10-31T00:32:16;11.00;;;4.03;;
19788;SDS011;10054;59.332;18.244;2023-10-31T00:34:45;12.60;;;4.23;;
19788;SDS011;10054;59.332;18.244;2023-10-31T00:37:14;14.50;;;3.77;;
19788;SDS011;10054;59.332;18.244;2023-10-31T00:39:43;12.23;;;3.87;;
19788;SDS011;10054;59.332;18.244;2023-10-31T00:42:11;8.87;;;3.87;;
19788;SDS011;10054;59.332;18.244;2023-10-31T00:44:41;12.23;;;3.90;;
19788;SDS011;10054;59.332;18.244;2023-10-31T00:47:10;13.87;;;3.67;;
19788;SDS011;10054;59.332;18.244;2023-10-31T00:49:38;9.67;;;3.10;;
19788;SDS011;10054;59.332;18.244;2023-10-31T00:52:07;9.67;;;3.27;;
19788;SDS011;10054;59.332;18.244;2023-10-31T00:54:37;13.47;;;3.80;;
19788;SDS011;10054;59.332;18.244;2023-10-31T00:57:06;14.50;;;3.50;;
19788;SDS011;10054;59.332;18.244;2023-10-31T00:59:34;10.87;;;3.50;;
19788;SDS011;10054;59.332;18.244;2023-10-31T01:02:04;11.10;;;3.60;;
19788;SDS011;10054;59.332;18.244;2023-10-31T01:04:33;15.77;;;3.60;;
19788;SDS011;10054;59.332;18.244;2023-10-31T01:07:04;11.87;;;3.73;;
19788;SDS011;10054;59.332;18.244;2023-10-31T01:09:34;7.20;;;2.87;;
19788;SDS011;10054;59.332;18.244;2023-10-31T01:12:03;11.77;;;3.33;;
19788;SDS011;10054;59.332;18.244;2023-10-31T01:14:32;7.97;;;3.20;;
19788;SDS011;10054;59.332;18.244;2023-10-31T01:17:01;11.90;;;3.43;;
19788;SDS011;10054;59.332;18.244;2023-10-31T01:19:30;13.37;;;3.23;;
19788;SDS011;10054;59.332;18.244;2023-10-31T01:21:59;12.13;;;3.10;;
19788;SDS011;10054;59.332;18.244;2023-10-31T01:24:28;10.70;;;3.00;;
19788;SDS011;10054;59.332;18.244;2023-10-31T01:26:57;11.43;;;3.20;;
19788;SDS011;10054;59.332;18.244;2023-10-31T01:29:25;8.83;;;2.93;;
19788;SDS011;10054;59.332;18.244;2023-10-31T01:31:54;9.73;;;2.90;;
19788;SDS011;10054;59.332;18.244;2023-10-31T01:34:23;11.87;;;3.20;;
19788;SDS011;10054;59.332;18.244;2023-10-31T01:36:52;12.90;;;3.07;;
19788;SDS011;10054;59.332;18.244;2023-10-31T01:39:21;10.37;;;3.27;;
19788;SDS011;10054;59.332;18.244;2023-10-31T01:41:50;8.63;;;2.97;;
19788;SDS011;10054;59.332;18.244;2023-10-31T01:44:20;9.00;;;3.10;;
19788;SDS011;10054;59.332;18.244;2023-10-31T01:46:51;6.23;;;2.60;;
19788;SDS011;10054;59.332;18.244;2023-10-31T01:49:20;12.27;;;3.30;;
19788;SDS011;10054;59.332;18.244;2023-10-31T01:51:50;7.07;;;2.40;;
19788;SDS011;10054;59.332;18.244;2023-10-31T01:54:19;12.87;;;2.80;;
19788;SDS011;10054;59.332;18.244;2023-10-31T01:56:48;8.93;;;2.77;;
19788;SDS011;10054;59.332;18.244;2023-10-31T01:59:19;10.37;;;2.73;;
19788;SDS011;10054;59.332;18.244;2023-10-31T02:01:47;8.00;;;2.87;;
19788;SDS011;10054;59.332;18.244;2023-10-31T02:04:17;11.30;;;2.80;;
19788;SDS011;10054;59.332;18.244;2023-10-31T02:06:47;5.37;;;2.23;;
19788;SDS011;10054;59.332;18.244;2023-10-31T02:09:18;8.70;;;2.67;;
19788;SDS011;10054;59.332;18.244;2023-10-31T02:11:49;10.00;;;2.60;;
19788;SDS011;10054;59.332;18.244;2023-10-31T02:14:18;8.03;;;3.00;;
19788;SDS011;10054;59.332;18.244;2023-10-31T02:16:47;8.90;;;2.97;;
19788;SDS011;10054;59.332;18.244;2023-10-31T02:19:17;11.90;;;3.33;;
19788;SDS011;10054;59.332;18.244;2023-10-31T02:21:47;13.23;;;3.13;;
19788;SDS011;10054;59.332;18.244;2023-10-31T02:24:16;8.23;;;3.20;;
19788;SDS011;10054;59.332;18.244;2023-10-31T02:26:45;12.00;;;3.20;;
19788;SDS011;10054;59.332;18.244;2023-10-31T02:29:14;10.77;;;2.93;;
19788;SDS011;10054;59.332;18.244;2023-10-31T02:31:43;15.93;;;3.40;;
19788;SDS011;10054;59.332;18.244;2023-10-31T02:34:12;9.60;;;3.30;;
19788;SDS011;10054;59.332;18.244;2023-10-31T02:36:42;12.13;;;3.50;;
19788;SDS011;10054;59.332;18.244;2023-10-31T02:39:11;12.00;;;3.33;;
19788;SDS011;10054;59.332;18.244;2023-10-31T02:41:40;7.67;;;3.07;;
19788;SDS011;10054;59.332;18.244;2023-10-31T02:44:08;13.97;;;3.40;;
19788;SDS011;10054;59.332;18.244;2023-10-31T02:46:38;10.63;;;2.90;;
19788;SDS011;10054;59.332;18.244;2023-10-31T02:49:06;12.70;;;3.33;;
19788;SDS011;10054;59.332;18.244;2023-10-31T02:51:36;12.73;;;3.47;;
19788;SDS011;10054;59.332;18.244;2023-10-31T02:54:05;14.57;;;3.27;;
19788;SDS011;10054;59.332;18.244;2023-10-31T02:56:34;11.10;;;3.37;;
19788;SDS011;10054;59.332;18.244;2023-10-31T02:59:03;12.37;;;3.53;;
19788;SDS011;10054;59.332;18.244;2023-10-31T03:01:32;16.20;;;3.30;;
19788;SDS011;10054;59.332;18.244;2023-10-31T03:04:03;11.03;;;3.53;;
19788;SDS011;10054;59.332;18.244;2023-10-31T03:06:32;15.90;;;4.10;;
19788;SDS011;10054;59.332;18.244;2023-10-31T03:09:00;9.50;;;3.93;;
19788;SDS011;10054;59.332;18.244;2023-10-31T03:11:29;9.70;;;3.50;;
19788;SDS011;10054;59.332;18.244;2023-10-31T03:13:59;8.80;;;3.20;;
19788;SDS011;10054;59.332;18.244;2023-10-31T03:16:28;8.60;;;3.33;;
19788;SDS011;10054;59.332;18.244;2023-10-31T03:18:57;8.90;;;3.57;;
19788;SDS011;10054;59.332;18.244;2023-10-31T03:21:26;10.37;;;3.77;;
19788;SDS011;10054;59.332;18.244;2023-10-31T03:23:57;9.07;;;3.47;;
19788;SDS011;10054;59.332;18.244;2023-10-31T03:26:26;14.33;;;3.90;;
19788;SDS011;10054;59.332;18.244;2023-10-31T03:28:55;16.40;;;3.80;;
19788;SDS011;10054;59.332;18.244;2023-10-31T03:31:26;11.97;;;4.03;;
19788;SDS011;10054;59.332;18.244;2023-10-31T03:33:55;7.40;;;3.40;;
19788;SDS011;10054;59.332;18.244;2023-10-31T03:36:23;14.43;;;4.10;;
19788;SDS011;10054;59.332;18.244;2023-10-31T03:38:52;11.63;;;3.80;;
19788;SDS011;10054;59.332;18.244;2023-10-31T03:41:21;14.53;;;3.70;;
19788;SDS011;10054;59.332;18.244;2023-10-31T03:43:50;12.10;;;4.07;;
19788;SDS011;10054;59.332;18.244;2023-10-31T03:46:19;9.23;;;3.83;;
19788;SDS011;10054;59.332;18.244;2023-10-31T03:48:48;12.00;;;3.93;;
19788;SDS011;10054;59.332;18.244;2023-10-31T03:51:17;10.83;;;4.07;;
19788;SDS011;10054;59.332;18.244;2023-10-31T03:53:46;12.13;;;4.00;;
19788;SDS011;10054;59.332;18.244;2023-10-31T03:56:16;10.20;;;3.97;;
19788;SDS011;10054;59.332;18.244;2023-10-31T03:58:45;13.43;;;4.10;;
19788;SDS011;10054;59.332;18.244;2023-10-31T04:01:13;14.87;;;4.20;;
19788;SDS011;10054;59.332;18.244;2023-10-31T04:03:43;10.97;;;3.90;;
19788;SDS011;10054;59.332;18.244;2023-10-31T04:06:12;12.23;;;3.73;;
19788;SDS011;10054;59.332;18.244;2023-10-31T04:08:43;15.33;;;3.87;;
19788;SDS011;10054;59.332;18.244;2023-10-31T04:11:11;11.50;;;4.40;;
19788;SDS011;10054;59.332;18.244;2023-10-31T04:13:40;17.23;;;4.20;;
19788;SDS011;10054;59.332;18.244;2023-10-31T04:16:08;10.20;;;3.53;;
19788;SDS011;10054;59.332;18.244;2023-10-31T04:18:37;12.13;;;3.67;;
19788;SDS011;10054;59.332;18.244;2023-10-31T04:21:06;11.17;;;3.70;;
19788;SDS011;10054;59.332;18.244;2023-10-31T04:23:34;13.30;;;3.80;;
19788;SDS011;10054;59.332;18.244;2023-10-31T04:26:03;13.30;;;3.87;;
19788;SDS011;10054;59.332;18.244;2023-10-31T04:28:32;12.43;;;4.33;;
19788;SDS011;10054;59.332;18.244;2023-10-31T04:31:00;10.27;;;3.97;;
19788;SDS011;10054;59.332;18.244;2023-10-31T04:33:29;12.93;;;4.90;;
19788;SDS011;10054;59.332;18.244;2023-10-31T04:35:58;7.93;;;4.27;;
19788;SDS011;10054;59.332;18.244;2023-10-31T04:38:28;13.70;;;3.97;;
19788;SDS011;10054;59.332;18.244;2023-10-31T04:40:58;12.13;;;4.20;;
19788;SDS011;10054;59.332;18.244;2023-10-31T04:43:27;12.33;;;3.87;;
19788;SDS011;10054;59.332;18.244;2023-10-31T04:45:56;14.97;;;4.67;;
19788;SDS011;10054;59.332;18.244;2023-10-31T04:48:24;10.80;;;4.20;;
19788;SDS011;10054;59.332;18.244;2023-10-31T04:50:53;7.37;;;3.60;;
19788;SDS011;10054;59.332;18.244;2023-10-31T04:53:23;13.93;;;4.30;;
19788;SDS011;10054;59.332;18.244;2023-10-31T04:55:52;12.53;;;4.10;;
19788;SDS011;10054;59.332;18.244;2023-10-31T04:58:20;10.63;;;3.70;;
19788;SDS011;10054;59.332;18.244;2023-10-31T05:00:49;9.37;;;3.90;;
19788;SDS011;10054;59.332;18.244;2023-10-31T05:03:19;13.70;;;4.20;;
19788;SDS011;10054;59.332;18.244;2023-10-31T05:05:47;14.50;;;4.00;;
19788;SDS011;10054;59.332;18.244;2023-10-31T05:08:16;12.63;;;4.03;;
19788;SDS011;10054;59.332;18.244;2023-10-31T05:10:45;12.17;;;4.00;;
19788;SDS011;10054;59.332;18.244;2023-10-31T05:13:14;15.77;;;4.03;;
19788;SDS011;10054;59.332;18.244;2023-10-31T05:15:42;13.03;;;3.93;;
19788;SDS011;10054;59.332;18.244;2023-10-31T05:18:11;13.87;;;4.57;;
19788;SDS011;10054;59.332;18.244;2023-10-31T05:20:40;11.97;;;4.20;;
19788;SDS011;10054;59.332;18.244;2023-10-31T05:23:09;18.10;;;4.30;;
19788;SDS011;10054;59.332;18.244;2023-10-31T05:25:37;14.27;;;4.33;;
19788;SDS011;10054;59.332;18.244;2023-10-31T05:28:06;11.43;;;4.33;;
19788;SDS011;10054;59.332;18.244;2023-10-31T05:30:34;11.70;;;3.97;;
19788;SDS011;10054;59.332;18.244;2023-10-31T05:33:03;11.33;;;4.20;;
19788;SDS011;10054;59.332;18.244;2023-10-31T05:35:33;8.40;;;4.80;;
19788;SDS011;10054;59.332;18.244;2023-10-31T05:38:01;9.43;;;4.07;;
19788;SDS011;10054;59.332;18.244;2023-10-31T05:40:30;13.83;;;4.17;;
19788;SDS011;10054;59.332;18.244;2023-10-31T05:43:00;8.57;;;4.27;;
19788;SDS011;10054;59.332;18.244;2023-10-31T05:45:29;8.07;;;4.10;;
19788;SDS011;10054;59.332;18.244;2023-10-31T05:47:59;8.90;;;3.97;;
19788;SDS011;10054;59.332;18.244;2023-10-31T05:50:28;16.77;;;4.63;;
19788;SDS011;10054;59.332;18.244;2023-10-31T05:52:57;17.77;;;4.50;;
19788;SDS011;10054;59.332;18.244;2023-10-31T05:55:25;18.67;;;4.50;;
19788;SDS011;10054;59.332;18.244;2023-10-31T05:57:54;21.53;;;4.57;;
19788;SDS011;10054;59.332;18.244;2023-10-31T06:00:23;11.50;;;4.40;;
19788;SDS011;10054;59.332;18.244;2023-10-31T06:02:52;9.97;;;3.93;;
19788;SDS011;10054;59.332;18.244;2023-10-31T06:05:21;9.87;;;4.47;;
19788;SDS011;10054;59.332;18.244;2023-10-31T06:07:49;14.93;;;4.70;;
19788;SDS011;10054;59.332;18.244;2023-10-31T06:10:18;10.70;;;5.03;;
19788;SDS011;10054;59.332;18.244;2023-10-31T06:12:48;12.03;;;4.13;;
19788;SDS011;10054;59.332;18.244;2023-10-31T06:15:16;13.10;;;4.30;;
19788;SDS011;10054;59.332;18.244;2023-10-31T06:17:45;12.77;;;4.33;;
19788;SDS011;10054;59.332;18.244;2023-10-31T06:20:13;16.50;;;4.90;;
19788;SDS011;10054;59.332;18.244;2023-10-31T06:22:42;12.27;;;4.77;;
19788;SDS011;10054;59.332;18.244;2023-10-31T06:25:11;14.07;;;5.33;;
19788;SDS011;10054;59.332;18.244;2023-10-31T06:27:39;19.00;;;5.00;;
19788;SDS011;10054;59.332;18.244;2023-10-31T06:30:08;19.57;;;4.43;;
19788;SDS011;10054;59.332;18.244;2023-10-31T06:32:38;15.33;;;4.87;;
19788;SDS011;10054;59.332;18.244;2023-10-31T06:35:08;15.90;;;5.20;;
19788;SDS011;10054;59.332;18.244;2023-10-31T06:37:36;20.23;;;5.00;;
19788;SDS011;10054;59.332;18.244;2023-10-31T06:40:05;21.87;;;5.80;;
19788;SDS011;10054;59.332;18.244;2023-10-31T06:42:38;17.77;;;5.33;;
19788;SDS011;10054;59.332;18.244;2023-10-31T06:45:06;15.47;;;5.63;;
19788;SDS011;10054;59.332;18.244;2023-10-31T06:47:35;19.90;;;5.40;;
19788;SDS011;10054;59.332;18.244;2023-10-31T06:50:04;14.63;;;5.00;;
19788;SDS011;10054;59.332;18.244;2023-10-31T06:52:34;12.03;;;5.43;;
19788;SDS011;10054;59.332;18.244;2023-10-31T06:55:03;12.43;;;4.70;;
19788;SDS011;10054;59.332;18.244;2023-10-31T06:57:32;12.10;;;4.50;;
19788;SDS011;10054;59.332;18.244;2023-10-31T07:00:01;16.77;;;4.87;;
19788;SDS011;10054;59.332;18.244;2023-10-31T07:02:29;17.20;;;4.97;;
19788;SDS011;10054;59.332;18.244;2023-10-31T07:04:58;17.80;;;5.37;;
19788;SDS011;10054;59.332;18.244;2023-10-31T07:07:27;15.17;;;5.60;;
19788;SDS011;10054;59.332;18.244;2023-10-31T07:09:55;18.30;;;5.83;;
19788;SDS011;10054;59.332;18.244;2023-10-31T07:12:24;18.93;;;5.27;;
19788;SDS011;10054;59.332;18.244;2023-10-31T07:14:52;14.20;;;5.10;;
19788;SDS011;10054;59.332;18.244;2023-10-31T07:17:21;14.40;;;5.57;;
19788;SDS011;10054;59.332;18.244;2023-10-31T07:19:50;27.17;;;5.23;;
19788;SDS011;10054;59.332;18.244;2023-10-31T07:22:18;22.93;;;5.87;;
19788;SDS011;10054;59.332;18.244;2023-10-31T07:24:47;14.03;;;4.90;;
19788;SDS011;10054;59.332;18.244;2023-10-31T07:27:15;15.60;;;5.13;;
19788;SDS011;10054;59.332;18.244;2023-10-31T07:29:44;15.80;;;5.57;;
19788;SDS011;10054;59.332;18.244;2023-10-31T07:32:13;13.90;;;5.33;;
19788;SDS011;10054;59.332;18.244;2023-10-31T07:34:41;19.20;;;5.80;;
19788;SDS011;10054;59.332;18.244;2023-10-31T07:37:10;14.07;;;5.20;;
19788;SDS011;10054;59.332;18.244;2023-10-31T07:39:39;18.60;;;5.40;;
19788;SDS011;10054;59.332;18.244;2023-10-31T07:42:08;18.67;;;5.57;;
19788;SDS011;10054;59.332;18.244;2023-10-31T07:44:37;16.90;;;6.03;;
19788;SDS011;10054;59.332;18.244;2023-10-31T07:47:05;19.87;;;6.23;;
19788;SDS011;10054;59.332;18.244;2023-10-31T07:49:34;19.90;;;5.60;;
19788;SDS011;10054;59.332;18.244;2023-10-31T07:52:03;16.10;;;5.87;;
19788;SDS011;10054;59.332;18.244;2023-10-31T07:54:31;17.03;;;5.00;;
19788;SDS011;10054;59.332;18.244;2023-10-31T07:57:00;16.43;;;5.80;;
19788;SDS011;10054;59.332;18.244;2023-10-31T07:59:28;13.17;;;5.50;;
19788;SDS011;10054;59.332;18.244;2023-10-31T08:01:58;20.97;;;5.07;;
19788;SDS011;10054;59.332;18.244;2023-10-31T08:04:27;18.90;;;5.50;;
19788;SDS011;10054;59.332;18.244;2023-10-31T08:06:59;15.50;;;5.70;;
19788;SDS011;10054;59.332;18.244;2023-10-31T08:09:29;12.10;;;5.00;;
19788;SDS011;10054;59.332;18.244;2023-10-31T08:11:57;20.70;;;6.17;;
19788;SDS011;10054;59.332;18.244;2023-10-31T08:14:26;18.10;;;5.83;;
19788;SDS011;10054;59.332;18.244;2023-10-31T08:16:54;14.17;;;5.87;;
19788;SDS011;10054;59.332;18.244;2023-10-31T08:19:23;17.03;;;5.77;;
19788;SDS011;10054;59.332;18.244;2023-10-31T08:21:51;18.23;;;5.43;;
19788;SDS011;10054;59.332;18.244;2023-10-31T08:24:20;15.17;;;5.60;;
19788;SDS011;10054;59.332;18.244;2023-10-31T08:26:49;17.40;;;5.93;;
19788;SDS011;10054;59.332;18.244;2023-10-31T08:29:17;14.90;;;5.17;;
19788;SDS011;10054;59.332;18.244;2023-10-31T08:31:46;18.27;;;5.70;;
19788;SDS011;10054;59.332;18.244;2023-10-31T08:34:15;20.40;;;5.87;;
19788;SDS011;10054;59.332;18.244;2023-10-31T08:36:43;22.33;;;6.23;;
19788;SDS011;10054;59.332;18.244;2023-10-31T08:39:12;20.07;;;6.53;;
19788;SDS011;10054;59.332;18.244;2023-10-31T08:41:56;15.67;;;6.00;;
19788;SDS011;10054;59.332;18.244;2023-10-31T08:44:27;18.90;;;5.93;;
19788;SDS011;10054;59.332;18.244;2023-10-31T08:46:55;16.97;;;5.93;;
19788;SDS011;10054;59.332;18.244;2023-10-31T08:49:24;19.13;;;6.47;;
19788;SDS011;10054;59.332;18.244;2023-10-31T08:51:52;22.73;;;6.93;;
19788;SDS011;10054;59.332;18.244;2023-10-31T08:54:22;21.33;;;6.63;;
19788;SDS011;10054;59.332;18.244;2023-10-31T08:56:50;17.90;;;6.20;;
19788;SDS011;10054;59.332;18.244;2023-10-31T08:59:19;17.23;;;6.07;;
19788;SDS011;10054;59.332;18.244;2023-10-31T09:01:48;13.97;;;6.40;;
19788;SDS011;10054;59.332;18.244;2023-10-31T09:04:16;19.53;;;6.10;;
19788;SDS011;10054;59.332;18.244;2023-10-31T09:06:45;18.97;;;5.93;;
19788;SDS011;10054;59.332;18.244;2023-10-31T09:09:14;25.73;;;7.07;;
19788;SDS011;10054;59.332;18.244;2023-10-31T09:11:42;17.93;;;6.33;;
19788;SDS011;10054;59.332;18.244;2023-10-31T09:14:11;20.90;;;6.03;;
19788;SDS011;10054;59.332;18.244;2023-10-31T09:16:39;17.90;;;6.20;;
19788;SDS011;10054;59.332;18.244;2023-10-31T09:19:08;13.13;;;6.13;;
19788;SDS011;10054;59.332;18.244;2023-10-31T09:21:36;23.83;;;6.77;;
19788;SDS011;10054;59.332;18.244;2023-10-31T09:24:05;19.73;;;6.13;;
19788;SDS011;10054;59.332;18.244;2023-10-31T09:26:35;18.60;;;6.90;;
19788;SDS011;10054;59.332;18.244;2023-10-31T09:29:04;21.93;;;7.30;;
19788;SDS011;10054;59.332;18.244;2023-10-31T09:31:32;21.90;;;7.03;;
19788;SDS011;10054;59.332;18.244;2023-10-31T09:34:01;20.70;;;7.23;;
19788;SDS011;10054;59.332;18.244;2023-10-31T09:36:34;26.20;;;7.90;;
19788;SDS011;10054;59.332;18.244;2023-10-31T09:39:02;22.87;;;7.93;;
19788;SDS011;10054;59.332;18.244;2023-10-31T09:41:31;30.57;;;8.67;;
19788;SDS011;10054;59.332;18.244;2023-10-31T09:43:59;21.23;;;8.73;;
19788;SDS011;10054;59.332;18.244;2023-10-31T09:46:28;22.40;;;7.97;;
19788;SDS011;10054;59.332;18.244;2023-10-31T09:48:57;41.63;;;7.90;;
19788;SDS011;10054;59.332;18.244;2023-10-31T09:51:27;37.80;;;7.30;;
19788;SDS011;10054;59.332;18.244;2023-10-31T09:53:56;25.37;;;6.73;;
19788;SDS011;10054;59.332;18.244;2023-10-31T09:56:26;46.10;;;8.67;;
19788;SDS011;10054;59.332;18.244;2023-10-31T09:59:01;70.70;;;8.47;;
19788;SDS011;10054;59.332;18.244;2023-10-31T10:01:30;147.10;;;10.93;;
19788;SDS011;10054;59.332;18.244;2023-10-31T10:03:58;85.10;;;9.10;;
19788;SDS011;10054;59.332;18.244;2023-10-31T10:06:27;146.07;;;10.83;;
19788;SDS011;10054;59.332;18.244;2023-10-31T10:08:56;94.33;;;12.17;;
19788;SDS011;10054;59.332;18.244;2023-10-31T10:11:24;69.43;;;8.63;;
19788;SDS011;10054;59.332;18.244;2023-10-31T10:13:54;292.43;;;13.77;;
19788;SDS011;10054;59.332;18.244;2023-10-31T10:16:28;413.10;;;15.27;;
19788;SDS011;10054;59.332;18.244;2023-10-31T10:19:19;424.37;;;15.47;;
19788;SDS011;10054;59.332;18.244;2023-10-31T10:21:56;362.40;;;12.53;;
19788;SDS011;10054;59.332;18.244;2023-10-31T10:24:25;198.63;;;11.00;;
19788;SDS011;10054;59.332;18.244;2023-10-31T10:26:54;482.87;;;15.90;;
19788;SDS011;10054;59.332;18.244;2023-10-31T10:29:23;562.90;;;16.00;;
19788;SDS011;10054;59.332;18.244;2023-10-31T10:31:53;464.37;;;17.00;;
19788;SDS011;10054;59.332;18.244;2023-10-31T10:34:21;530.00;;;16.47;;
19788;SDS011;10054;59.332;18.244;2023-10-31T10:36:51;471.63;;;17.20;;
19788;SDS011;10054;59.332;18.244;2023-10-31T10:39:23;385.67;;;15.47;;
19788;SDS011;10054;59.332;18.244;2023-10-31T10:41:52;192.40;;;10.27;;
19788;SDS011;10054;59.332;18.244;2023-10-31T10:44:25;238.73;;;12.77;;
19788;SDS011;10054;59.332;18.244;2023-10-31T10:47:02;230.57;;;11.83;;
19788;SDS011;10054;59.332;18.244;2023-10-31T10:49:33;339.87;;;14.03;;
19788;SDS011;10054;59.332;18.244;2023-10-31T10:55:01;130.57;;;8.83;;
19788;SDS011;10054;59.332;18.244;2023-10-31T10:57:38;85.87;;;7.03;;
19788;SDS011;10054;59.332;18.244;2023-10-31T11:00:10;113.37;;;6.70;;
19788;SDS011;10054;59.332;18.244;2023-10-31T11:02:40;105.27;;;6.83;;
19788;SDS011;10054;59.332;18.244;2023-10-31T11:05:10;63.00;;;5.23;;
19788;SDS011;10054;59.332;18.244;2023-10-31T11:07:39;137.37;;;6.53;;
19788;SDS011;10054;59.332;18.244;2023-10-31T11:10:09;73.93;;;5.33;;
19788;SDS011;10054;59.332;18.244;2023-10-31T11:12:38;70.07;;;5.40;;
19788;SDS011;10054;59.332;18.244;2023-10-31T11:15:08;35.10;;;4.43;;
19788;SDS011;10054;59.332;18.244;2023-10-31T11:17:41;79.17;;;5.90;;
19788;SDS011;10054;59.332;18.244;2023-10-31T11:20:12;137.13;;;6.50;;
19788;SDS011;10054;59.332;18.244;2023-10-31T11:22:43;65.87;;;4.60;;
19788;SDS011;10054;59.332;18.244;2023-10-31T11:25:16;95.63;;;6.57;;
19788;SDS011;10054;59.332;18.244;2023-10-31T11:27:51;49.33;;;5.07;;
19788;SDS011;10054;59.332;18.244;2023-10-31T11:30:30;148.87;;;7.70;;
19788;SDS011;10054;59.332;18.244;2023-10-31T11:33:01;97.07;;;5.70;;
19788;SDS011;10054;59.332;18.244;2023-10-31T11:35:35;89.17;;;4.77;;
19788;SDS011;10054;59.332;18.244;2023-10-31T11:38:07;135.13;;;6.30;;
19788;SDS011;10054;59.332;18.244;2023-10-31T11:41:00;153.30;;;6.53;;
19788;SDS011;10054;59.332;18.244;2023-10-31T11:43:18;62.70;;;4.67;;
19788;SDS011;10054;59.332;18.244;2023-10-31T11:45:47;135.30;;;6.07;;
19788;SDS011;10054;59.332;18.244;2023-10-31T11:48:16;165.20;;;7.53;;
19788;SDS011;10054;59.332;18.244;2023-10-31T11:50:44;348.57;;;11.97;;
19788;SDS011;10054;59.332;18.244;2023-10-31T11:53:13;289.30;;;9.60;;
19788;SDS011;10054;59.332;18.244;2023-10-31T11:55:46;232.87;;;10.33;;
19788;SDS011;10054;59.332;18.244;2023-10-31T12:01:03;165.17;;;8.37;;
19788;SDS011;10054;59.332;18.244;2023-10-31T12:03:44;244.77;;;11.03;;
19788;SDS011;10054;59.332;18.244;2023-10-31T12:06:15;231.40;;;9.50;;
19788;SDS011;10054;59.332;18.244;2023-10-31T12:08:45;172.50;;;9.30;;
19788;SDS011;10054;59.332;18.244;2023-10-31T12:11:15;110.60;;;11.53;;
19788;SDS011;10054;59.332;18.244;2023-10-31T12:13:57;92.67;;;8.37;;
19788;SDS011;10054;59.332;18.244;2023-10-31T12:16:28;244.93;;;9.47;;
19788;SDS011;10054;59.332;18.244;2023-10-31T12:19:04;290.23;;;10.60;;
19788;SDS011;10054;59.332;18.244;2023-10-31T12:21:46;291.77;;;10.63;;
19788;SDS011;10054;59.332;18.244;2023-10-31T12:24:17;182.13;;;10.57;;
19788;SDS011;10054;59.332;18.244;2023-10-31T12:26:46;345.50;;;12.63;;
19788;SDS011;10054;59.332;18.244;2023-10-31T12:29:16;149.83;;;8.17;;
19788;SDS011;10054;59.332;18.244;2023-10-31T12:31:49;197.83;;;7.10;;
19788;SDS011;10054;59.332;18.244;2023-10-31T12:34:20;230.83;;;8.80;;
19788;SDS011;10054;59.332;18.244;2023-10-31T12:36:51;122.87;;;5.40;;
19788;SDS011;10054;59.332;18.244;2023-10-31T12:39:24;71.73;;;4.30;;
19788;SDS011;10054;59.332;18.244;2023-10-31T12:41:54;105.67;;;4.60;;
19788;SDS011;10054;59.332;18.244;2023-10-31T12:44:25;38.00;;;3.27;;
19788;SDS011;10054;59.332;18.244;2023-10-31T12:46:55;96.93;;;4.67;;
19788;SDS011;10054;59.332;18.244;2023-10-31T12:49:23;39.37;;;3.00;;
19788;SDS011;10054;59.332;18.244;2023-10-31T12:52:00;36.90;;;2.80;;
19788;SDS011;10054;59.332;18.244;2023-10-31T12:54:29;41.00;;;3.17;;
19788;SDS011;10054;59.332;18.244;2023-10-31T12:57:01;10.90;;;2.10;;
19788;SDS011;10054;59.332;18.244;2023-10-31T12:59:32;5.23;;;1.90;;
19788;SDS011;10054;59.332;18.244;2023-10-31T13:02:03;7.57;;;2.50;;
19788;SDS011;10054;59.332;18.244;2023-10-31T13:04:33;14.07;;;2.57;;
19788;SDS011;10054;59.332;18.244;2023-10-31T13:07:02;39.27;;;3.53;;
19788;SDS011;10054;59.332;18.244;2023-10-31T13:09:32;14.67;;;3.43;;
19788;SDS011;10054;59.332;18.244;2023-10-31T13:12:07;15.67;;;2.40;;
19788;SDS011;10054;59.332;18.244;2023-10-31T13:14:41;7.37;;;2.33;;
19788;SDS011;10054;59.332;18.244;2023-10-31T13:17:09;10.53;;;2.00;;
19788;SDS011;10054;59.332;18.244;2023-10-31T13:19:38;4.50;;;2.00;;
19788;SDS011;10054;59.332;18.244;2023-10-31T13:22:07;3.10;;;1.90;;
19788;SDS011;10054;59.332;18.244;2023-10-31T13:24:36;5.87;;;3.93;;
19788;SDS011;10054;59.332;18.244;2023-10-31T13:27:06;7.83;;;6.00;;
19788;SDS011;10054;59.332;18.244;2023-10-31T13:29:35;3.47;;;3.10;;
19788;SDS011;10054;59.332;18.244;2023-10-31T13:32:03;2.87;;;1.73;;
19788;SDS011;10054;59.332;18.244;2023-10-31T13:34:32;1.90;;;1.70;;
19788;SDS011;10054;59.332;18.244;2023-10-31T13:37:01;1.50;;;1.40;;
19788;SDS011;10054;59.332;18.244;2023-10-31T13:39:30;1.67;;;1.57;;
19788;SDS011;10054;59.332;18.244;2023-10-31T13:41:58;2.00;;;1.37;;
19788;SDS011;10054;59.332;18.244;2023-10-31T13:44:27;3.23;;;1.00;;
19788;SDS011;10054;59.332;18.244;2023-10-31T13:46:56;1.57;;;1.00;;
19788;SDS011;10054;59.332;18.244;2023-10-31T13:49:24;2.53;;;1.10;;
19788;SDS011;10054;59.332;18.244;2023-10-31T13:51:54;1.00;;;1.00;;
19788;SDS011;10054;59.332;18.244;2023-10-31T13:54:22;1.20;;;0.90;;
19788;SDS011;10054;59.332;18.244;2023-10-31T13:56:51;2.10;;;1.00;;
19788;SDS011;10054;59.332;18.244;2023-10-31T13:59:20;2.30;;;0.90;;
19788;SDS011;10054;59.332;18.244;2023-10-31T14:01:49;1.50;;;0.83;;
19788;SDS011;10054;59.332;18.244;2023-10-31T14:04:18;0.80;;;0.80;;
19788;SDS011;10054;59.332;18.244;2023-10-31T14:06:47;1.63;;;0.93;;
19788;SDS011;10054;59.332;18.244;2023-10-31T14:09:16;0.80;;;0.80;;
19788;SDS011;10054;59.332;18.244;2023-10-31T14:11:45;1.13;;;1.03;;
19788;SDS011;10054;59.332;18.244;2023-10-31T14:14:13;1.13;;;1.03;;
19788;SDS011;10054;59.332;18.244;2023-10-31T14:16:42;2.53;;;1.00;;
19788;SDS011;10054;59.332;18.244;2023-10-31T14:19:11;0.77;;;0.77;;
19788;SDS011;10054;59.332;18.244;2023-10-31T14:21:40;0.80;;;0.80;;
19788;SDS011;10054;59.332;18.244;2023-10-31T14:24:09;3.67;;;0.90;;
19788;SDS011;10054;59.332;18.244;2023-10-31T14:26:37;1.23;;;0.70;;
19788;SDS011;10054;59.332;18.244;2023-10-31T14:29:08;0.70;;;0.70;;
19788;SDS011;10054;59.332;18.244;2023-10-31T14:31:43;0.70;;;0.70;;
19788;SDS011;10054;59.332;18.244;2023-10-31T14:34:08;0.70;;;0.70;;
19788;SDS011;10054;59.332;18.244;2023-10-31T14:36:37;1.17;;;0.60;;
19788;SDS011;10054;59.332;18.244;2023-10-31T14:39:05;0.80;;;0.77;;